Terminal Aerodrome Forecast
Issued by NWS Sioux Falls, SD

Home | Current Version | Previous Version | Text Only | Print | Product List | Glossary On
Versions: 1 2 3 4 5 6 7 8 9 10 11 12 13 14 15 16
000
FTUS43 KFSD 292320
TAFFSD
TAF
KFSD 292320Z 3000/3024 31013G19KT P6SM SKC
     FM300200 22004KT P6SM SKC
     FM301400 25010KT P6SM SCT150
     FM301800 29014G21KT P6SM SCT080=

USA.gov is the U.S. government's official web portal to all federal, state and local government web resources and services.